CDT,Max TemperatureF,Mean TemperatureF,Min TemperatureF,Max Dew PointF,MeanDew PointF,Min DewpointF,Max Humidity, Mean Humidity, Min Humidity, Max Sea Level PressureIn, Mean Sea Level PressureIn, Min Sea Level PressureIn, Max VisibilityMiles, Mean VisibilityMiles, Min VisibilityMiles, Max Wind SpeedMPH, Mean Wind SpeedMPH, Max Gust SpeedMPH,PrecipitationIn, CloudCover, Events, WindDirDegrees
2013-3-1,43,40,37,29,27,24,76,65,53,30.10,30.07,30.03,10,10,10,13,6,,0.00,8,,289
2013-3-2,39,36,33,31,27,24,89,72,54,30.14,30.09,30.03,10,10,5,13,7,16,T,8,Snow,289
2013-3-3,45,38,31,25,20,13,72,50,27,30.19,30.14,30.09,10,10,8,10,6,20,T,5,,306
2013-3-4,63,45,26,41,25,20,81,52,23,30.23,30.12,30.01,10,10,10,14,3,17,0.00,1,,146
2013-3-5,69,52,34,57,46,28,84,71,57,30.06,29.89,29.73,10,9,1,31,12,43,0.23,6,Rain-Thunderstorm,242
2013-3-6,46,40,34,29,24,18,82,65,47,30.28,30.20,30.04,10,10,10,22,10,33,0.00,5,,304
2013-3-7,58,44,29,31,27,24,78,54,30,30.34,30.29,30.25,10,10,9,14,5,17,0.00,0,,7
2013-3-8,66,49,31,34,28,18,89,53,16,30.37,30.29,30.25,10,10,7,10,4,14,0.00,0,,57
2013-3-9,68,54,40,34,30,25,73,50,26,30.30,30.21,30.11,10,10,7,14,6,21,0.00,0,,75
2013-3-10,76,65,54,45,38,30,48,39,30,30.14,30.06,29.97,10,10,10,21,8,31,0.00,0,,128
2013-3-11,43,40,37,55,49,36,76,65,53,29.97,29.88,29.82,10,7,2,13,6,36,0.00,6,Rain,239
2013-3-12,60,48,36,34,31,28,79,56,33,30.18,30.07,29.96,10,10,10,17,6,21,0.00,1,,303
2013-3-13,55,43,31,34,24,17,92,57,22,30.36,30.26,30.18,10,10,10,22,8,32,0.00,0,,279
2013-3-14,56,44,31,31,20,13,76,47,18,30.45,30.36,30.29,10,10,10,13,3,21,0.00,0,,5
2013-3-15,75,54,32,42,36,28,89,58,27,30.29,30.14,30.00,10,10,8,22,8,28,0.00,0,,246
2013-3-16,77,63,48,46,41,38,80,54,27,30.05,29.98,29.91,10,10,10,24,9,31,0.00,0,,239
2013-3-17,72,60,47,57,49,44,93,69,44,30.03,29.95,29.90,10,10,6,16,5,24,0.00,1,,220
2013-3-18,77,65,53,61,55,51,93,79,64,29.93,29.87,29.76,10,8,0,44,5,59,0.36,6,Fog-Thunderstorm,227
2013-3-19,64,55,45,52,34,24,86,54,22,30.11,30.06,29.90,10,10,10,16,6,23,0.00,2,,12
2013-3-20,60,51,42,34,23,16,65,43,20,30.18,30.08,29.98,10,10,10,17,6,28,T,1,,335
2013-3-21,50,42,34,27,15,8,70,44,18,30.09,30.02,29.97,10,10,10,14,5,23,T,1,,329
2013-3-22,54,45,36,43,36,18,85,70,54,30.09,30.02,29.98,10,10,6,13,7,15,0.16,8,Rain,87
2013-3-23,66,56,46,54,48,42,93,80,67,30.00,29.86,29.64,10,7,2,18,7,25,1.66,8,Rain-Thunderstorm,66
2013-3-24,66,54,41,54,47,27,93,73,53,29.83,29.65,29.53,10,9,2,29,11,39,0.28,7,Rain-Thunderstorm,20
2013-3-25,47,41,34,26,22,18,59,46,33,30.19,30.01,29.83,10,10,10,23,14,36,0.00,6,,282
2013-3-26,42,37,32,25,23,22,72,58,43,30.38,30.28,30.17,10,10,10,14,7,20,0.00,7,,282
2013-3-27,56,41,26,32,25,21,85,56,27,30.43,30.36,30.30,10,10,10,13,4,20,0.00,0,,330
2013-3-28,64,48,31,37,29,23,92,57,22,30.40,30.34,30.27,10,10,10,8,2,,0.00,0,,3
2013-3-29,71,54,37,45,35,31,85,55,24,30.35,30.26,30.17,10,10,9,16,5,21,T,3,,85
2013-3-30,74,63,51,56,48,40,93,64,35,30.19,30.10,30.01,10,8,2,14,3,18,0.31,7,Rain,28
2013-3-31,70,64,57,58,55,53,93,76,59,30.00,29.96,29.87,10,10,4,20,7,25,0.05,7,Rain,242